Time;durP1;ratioP1;P1;durP2;ratioP2;P2;SDS_P1;SDS_P2;PMS_P1;PMS_P2;Temp;Humidity;BMP_temperature;BMP_pressure;BME280_temperature;BME280_humidity;BME280_pressure;Samples;Min_cycle;Max_cycle;Signal;HPM_P1;HPM_P2
2021/01/27 00:01:48;;;;;;;1.50;0.60;;;1.10;99.90;;;;;;5073857;28;20420;-58
2021/01/27 00:04:15;;;;;;;0.80;0.60;;;1.10;99.90;;;;;;5074456;28;20427;-58
2021/01/27 00:06:41;;;;;;;0.82;0.60;;;1.10;99.90;;;;;;5073743;28;20424;-59
2021/01/27 00:09:08;;;;;;;1.30;0.60;;;1.10;99.90;;;;;;5073649;28;20427;-58
2021/01/27 00:11:34;;;;;;;1.00;0.50;;;1.20;99.90;;;;;;5074166;28;20917;-58
2021/01/27 00:14:02;;;;;;;1.13;0.60;;;1.20;99.90;;;;;;5074848;28;20415;-59
2021/01/27 00:16:28;;;;;;;2.88;0.70;;;1.10;99.90;;;;;;5072720;28;20435;-58
2021/01/27 00:18:55;;;;;;;1.08;0.60;;;1.10;99.90;;;;;;5074290;28;20885;-59
2021/01/27 00:21:21;;;;;;;1.20;0.60;;;1.10;99.90;;;;;;5073967;28;20825;-58
2021/01/27 00:23:48;;;;;;;0.90;0.60;;;1.00;99.90;;;;;;5073061;28;20423;-58
2021/01/27 00:26:14;;;;;;;0.90;0.60;;;1.10;99.90;;;;;;5074535;28;20415;-59
2021/01/27 00:28:41;;;;;;;1.00;0.70;;;1.00;99.90;;;;;;5073684;28;20523;-58
2021/01/27 00:31:08;;;;;;;1.10;0.60;;;0.90;99.90;;;;;;5073815;28;20525;-58
2021/01/27 00:33:35;;;;;;;1.10;0.70;;;1.00;99.90;;;;;;5072834;28;20415;-58
2021/01/27 00:36:01;;;;;;;1.70;0.60;;;1.10;99.90;;;;;;5073054;28;20423;-59
2021/01/27 00:38:28;;;;;;;1.40;0.60;;;1.10;99.90;;;;;;5071951;28;20412;-58
2021/01/27 00:41:04;;;;;;;1.10;0.60;;;1.20;99.90;;;;;;5072908;28;20435;-58
2021/01/27 00:43:30;;;;;;;1.00;0.60;;;1.20;99.90;;;;;;5074541;28;20415;-58
2021/01/27 00:45:57;;;;;;;1.10;0.68;;;1.20;99.90;;;;;;5075450;28;20430;-58
2021/01/27 00:48:24;;;;;;;1.10;0.68;;;1.20;99.90;;;;;;5075885;28;20419;-58
2021/01/27 00:50:51;;;;;;;1.08;0.70;;;1.30;99.90;;;;;;5075502;28;20454;-58
2021/01/27 00:53:18;;;;;;;1.20;0.70;;;1.30;99.90;;;;;;5075663;28;20851;-58
2021/01/27 00:55:44;;;;;;;1.05;0.70;;;1.30;99.90;;;;;;5075214;28;20431;-58
2021/01/27 00:58:11;;;;;;;1.20;0.70;;;1.30;99.90;;;;;;5075919;28;20768;-58
2021/01/27 01:00:39;;;;;;;1.20;0.70;;;1.40;99.90;;;;;;5075536;28;20431;-59
2021/01/27 01:03:07;;;;;;;1.10;0.70;;;1.40;99.90;;;;;;5075433;28;20416;-59
2021/01/27 01:05:37;;;;;;;1.40;0.80;;;1.40;99.90;;;;;;5075658;28;20834;-59
2021/01/27 01:08:04;;;;;;;1.73;0.80;;;1.30;99.90;;;;;;5075756;28;20431;-60
2021/01/27 01:10:32;;;;;;;1.40;0.90;;;1.20;99.90;;;;;;5075896;28;20735;-59
2021/01/27 01:12:59;;;;;;;1.37;0.90;;;1.20;99.90;;;;;;5075042;28;20527;-59
2021/01/27 01:15:28;;;;;;;1.20;0.70;;;1.20;99.90;;;;;;5074078;28;20424;-59
2021/01/27 01:17:54;;;;;;;1.40;0.80;;;1.20;99.90;;;;;;5075805;28;20838;-58
2021/01/27 01:20:22;;;;;;;1.13;0.70;;;1.20;99.90;;;;;;5076078;28;20861;-58
2021/01/27 01:22:52;;;;;;;2.17;1.00;;;1.30;99.90;;;;;;5075405;28;20478;-58
2021/01/27 01:25:21;;;;;;;2.80;1.17;;;1.20;99.90;;;;;;5074632;28;20548;-58
2021/01/27 01:27:48;;;;;;;1.90;0.95;;;1.30;99.90;;;;;;5073029;28;20427;-59
2021/01/27 01:30:16;;;;;;;2.15;1.00;;;1.20;99.90;;;;;;5074315;28;20427;-58
2021/01/27 01:32:44;;;;;;;2.08;1.10;;;1.20;99.90;;;;;;5073453;28;20485;-59
2021/01/27 01:35:14;;;;;;;1.67;1.00;;;1.20;99.90;;;;;;5073235;28;20427;-58
2021/01/27 01:37:42;;;;;;;1.52;0.90;;;1.20;99.90;;;;;;5073785;28;20404;-58
2021/01/27 01:40:13;;;;;;;2.50;1.00;;;1.20;99.90;;;;;;5073831;28;20488;-58
2021/01/27 01:42:40;;;;;;;1.90;0.90;;;1.20;99.90;;;;;;5074513;28;20419;-58
2021/01/27 01:45:14;;;;;;;2.40;1.00;;;1.30;99.90;;;;;;5073674;28;20431;-58
2021/01/27 01:47:41;;;;;;;1.85;1.00;;;1.40;99.90;;;;;;5073567;28;20427;-58
2021/01/27 01:50:08;;;;;;;1.50;0.90;;;1.30;99.90;;;;;;5072096;28;20427;-58
2021/01/27 01:52:34;;;;;;;2.50;1.00;;;1.30;99.90;;;;;;5071987;28;20513;-59
2021/01/27 01:55:02;;;;;;;2.60;1.00;;;1.30;99.90;;;;;;5071803;28;20838;-59
2021/01/27 01:57:31;;;;;;;2.80;0.90;;;1.30;99.90;;;;;;5072133;28;20419;-60
2021/01/27 02:00:02;;;;;;;2.10;0.90;;;1.30;99.90;;;;;;5071391;28;20431;-59
2021/01/27 02:02:29;;;;;;;1.50;0.90;;;1.40;99.90;;;;;;5071567;28;20411;-59
2021/01/27 02:05:00;;;;;;;3.22;0.80;;;1.30;99.90;;;;;;5072314;28;20426;-60
2021/01/27 02:07:27;;;;;;;1.85;0.90;;;1.30;99.90;;;;;;5073861;28;20430;-59
2021/01/27 02:09:53;;;;;;;2.88;1.00;;;1.30;99.90;;;;;;5074230;28;20431;-58
2021/01/27 02:12:38;;;;;;;1.77;0.90;;;1.30;99.90;;;;;;5074322;28;20505;-59
2021/01/27 02:15:17;;;;;;;2.70;0.90;;;1.30;99.90;;;;;;5073725;28;20470;-59
2021/01/27 02:17:49;;;;;;;1.50;0.90;;;1.30;99.90;;;;;;5074401;28;20487;-59
2021/01/27 02:20:42;;;;;;;1.60;0.90;;;1.30;99.90;;;;;;5073685;28;20458;-58
2021/01/27 02:24:06;;;;;;;1.40;0.90;;;1.30;99.90;;;;;;5073864;28;20412;-59
2021/01/27 02:26:48;;;;;;;1.50;0.77;;;1.20;99.90;;;;;;5073787;28;20502;-59
2021/01/27 02:29:42;;;;;;;1.63;0.80;;;1.20;99.90;;;;;;5073583;28;20455;-59
2021/01/27 02:32:46;;;;;;;2.20;1.00;;;1.20;99.90;;;;;;5073802;28;20510;-59
2021/01/27 02:35:17;;;;;;;3.08;0.90;;;1.10;99.90;;;;;;5072807;28;20455;-59
2021/01/27 02:37:50;;;;;;;1.50;0.80;;;1.20;99.90;;;;;;5073931;28;20426;-58
2021/01/27 02:40:23;;;;;;;1.77;0.80;;;1.20;99.90;;;;;;5073931;28;20462;-59
2021/01/27 02:42:58;;;;;;;1.40;0.80;;;1.10;99.90;;;;;;5074315;28;20447;-58
2021/01/27 02:45:31;;;;;;;2.00;0.90;;;1.20;99.90;;;;;;5074034;28;20521;-59
2021/01/27 02:48:02;;;;;;;1.38;0.90;;;1.10;99.90;;;;;;5074496;28;20789;-59
2021/01/27 02:50:37;;;;;;;1.48;0.90;;;1.10;99.90;;;;;;5074320;28;20780;-59
2021/01/27 02:53:15;;;;;;;2.22;0.85;;;1.10;99.90;;;;;;5074776;28;20467;-59
2021/01/27 02:55:49;;;;;;;4.13;0.90;;;1.10;99.90;;;;;;5074694;28;20735;-59
2021/01/27 02:58:21;;;;;;;2.08;0.80;;;1.00;99.90;;;;;;5074071;28;20423;-59
2021/01/27 03:00:54;;;;;;;1.60;0.90;;;1.00;99.90;;;;;;5074932;28;20438;-59
2021/01/27 03:03:25;;;;;;;1.50;0.80;;;1.00;99.90;;;;;;5074011;28;20436;-58
2021/01/27 03:05:56;;;;;;;1.90;0.90;;;1.00;99.90;;;;;;5074147;28;20451;-59
2021/01/27 03:08:26;;;;;;;1.70;1.00;;;1.10;99.90;;;;;;5074429;28;20481;-59
2021/01/27 03:11:01;;;;;;;2.22;0.88;;;1.10;99.90;;;;;;5073944;28;20474;-59
2021/01/27 03:13:27;;;;;;;2.80;0.90;;;1.10;99.90;;;;;;5073815;28;20489;-59
2021/01/27 03:15:58;;;;;;;2.13;1.00;;;1.10;99.90;;;;;;5074412;28;20435;-60
2021/01/27 03:18:29;;;;;;;3.50;1.10;;;1.10;99.90;;;;;;5074292;28;20455;-59
2021/01/27 03:21:01;;;;;;;1.60;0.90;;;1.10;99.90;;;;;;5074437;28;20482;-59
2021/01/27 03:23:35;;;;;;;3.50;0.90;;;1.10;99.90;;;;;;5074035;28;20513;-59
2021/01/27 03:26:07;;;;;;;2.90;0.90;;;1.20;99.90;;;;;;5074219;28;20520;-59
2021/01/27 03:28:38;;;;;;;2.27;0.90;;;1.10;99.90;;;;;;5074191;28;20838;-59
2021/01/27 03:31:05;;;;;;;2.50;1.00;;;1.00;99.90;;;;;;5073817;28;20471;-59
2021/01/27 03:33:36;;;;;;;1.73;0.90;;;1.00;99.90;;;;;;5073590;28;20466;-59
2021/01/27 03:36:07;;;;;;;1.90;0.80;;;1.10;99.90;;;;;;5073568;28;20873;-58
2021/01/27 03:38:36;;;;;;;1.90;0.90;;;1.10;99.90;;;;;;5073795;28;20717;-58
2021/01/27 03:41:09;;;;;;;3.05;0.90;;;1.00;99.90;;;;;;5073720;28;20480;-58
2021/01/27 03:43:41;;;;;;;2.22;1.00;;;1.00;99.90;;;;;;5073498;28;20575;-58
2021/01/27 03:46:15;;;;;;;1.10;0.70;;;1.20;99.90;;;;;;5073524;28;20466;-58
2021/01/27 03:48:47;;;;;;;2.25;0.98;;;1.30;99.90;;;;;;5073498;28;20783;-59
2021/01/27 03:51:16;;;;;;;1.40;0.80;;;1.30;99.90;;;;;;5073433;28;20424;-58
2021/01/27 03:53:44;;;;;;;1.40;0.80;;;1.30;99.90;;;;;;5073652;28;20455;-58
2021/01/27 03:56:17;;;;;;;1.90;0.80;;;1.30;99.90;;;;;;5073641;28;20426;-58
2021/01/27 03:58:46;;;;;;;2.22;0.80;;;1.30;99.90;;;;;;5074940;28;20463;-58
2021/01/27 04:01:14;;;;;;;2.50;0.70;;;1.30;99.90;;;;;;5077613;28;20826;-58
2021/01/27 04:03:41;;;;;;;1.80;0.60;;;1.40;99.90;;;;;;5077537;28;20916;-58
2021/01/27 04:06:08;;;;;;;1.70;0.80;;;1.40;99.90;;;;;;5076631;28;20467;-58
2021/01/27 04:08:36;;;;;;;1.35;0.70;;;1.40;99.90;;;;;;5077733;28;20443;-58
2021/01/27 04:11:03;;;;;;;2.35;0.80;;;1.40;99.90;;;;;;5077367;28;20454;-58
2021/01/27 04:13:30;;;;;;;1.20;0.70;;;1.50;99.90;;;;;;5076739;28;20485;-58
2021/01/27 04:15:57;;;;;;;1.20;0.60;;;1.50;99.90;;;;;;5076847;28;20475;-58
2021/01/27 04:18:24;;;;;;;1.27;0.70;;;1.60;99.90;;;;;;5077078;28;20423;-58
2021/01/27 04:20:51;;;;;;;3.08;0.80;;;1.60;99.90;;;;;;5076576;28;20514;-58
2021/01/27 04:23:18;;;;;;;1.42;0.80;;;1.60;99.90;;;;;;5076228;28;20451;-58
2021/01/27 04:25:45;;;;;;;2.25;0.60;;;1.60;99.90;;;;;;5076533;28;20466;-58
2021/01/27 04:28:12;;;;;;;1.20;0.70;;;1.60;99.90;;;;;;5076849;28;20466;-58
2021/01/27 04:30:39;;;;;;;2.00;0.88;;;1.60;99.90;;;;;;5076818;28;20524;-58
2021/01/27 04:33:07;;;;;;;1.95;0.70;;;1.80;99.90;;;;;;5076661;28;20975;-58
2021/01/27 04:35:34;;;;;;;1.33;0.70;;;1.70;99.90;;;;;;5075457;28;20428;-58
2021/01/27 04:38:01;;;;;;;1.52;0.70;;;1.70;99.90;;;;;;5075752;28;20453;-59
2021/01/27 04:40:31;;;;;;;1.95;0.70;;;1.60;99.90;;;;;;5076897;28;20463;-58
2021/01/27 04:42:59;;;;;;;1.30;0.70;;;1.60;99.90;;;;;;5076190;28;20427;-57
2021/01/27 04:45:26;;;;;;;1.25;0.70;;;1.60;99.90;;;;;;5076200;28;20826;-58
2021/01/27 04:47:57;;;;;;;1.47;0.80;;;1.50;99.90;;;;;;5075746;28;20423;-58
2021/01/27 04:50:30;;;;;;;0.90;0.60;;;1.40;99.90;;;;;;5075085;28;20770;-58
2021/01/27 04:53:07;;;;;;;1.75;0.80;;;1.40;99.90;;;;;;5074281;28;20471;-58
2021/01/27 04:56:08;;;;;;;1.20;0.70;;;1.40;99.90;;;;;;5073508;28;20427;-58
2021/01/27 04:58:44;;;;;;;1.00;0.60;;;1.40;99.90;;;;;;5074116;28;20466;-58
2021/01/27 05:01:30;;;;;;;0.90;0.70;;;1.40;99.90;;;;;;5074753;28;20506;-58
2021/01/27 05:04:30;;;;;;;1.02;0.60;;;1.40;99.90;;;;;;5074374;28;20420;-59
2021/01/27 05:07:02;;;;;;;0.85;0.50;;;1.40;99.90;;;;;;5073091;28;20520;-59
2021/01/27 05:09:33;;;;;;;1.17;0.60;;;1.40;99.90;;;;;;5074623;28;20463;-59
2021/01/27 05:12:02;;;;;;;1.00;0.70;;;1.40;99.90;;;;;;5075359;28;20462;-58
2021/01/27 05:14:30;;;;;;;1.20;0.60;;;1.40;99.90;;;;;;5075348;28;20427;-58
2021/01/27 05:16:59;;;;;;;0.90;0.60;;;1.60;99.90;;;;;;5075424;28;20412;-58
2021/01/27 05:19:25;;;;;;;2.08;0.60;;;1.60;99.90;;;;;;5075359;28;20424;-59
2021/01/27 05:21:55;;;;;;;2.00;0.60;;;1.50;99.90;;;;;;5075457;28;20415;-58
2021/01/27 05:24:22;;;;;;;1.15;0.50;;;1.50;99.90;;;;;;5074507;28;20423;-59
2021/01/27 05:26:53;;;;;;;0.80;0.50;;;1.40;99.90;;;;;;5074593;28;20464;-59
2021/01/27 05:29:25;;;;;;;0.90;0.60;;;1.40;99.90;;;;;;5074838;28;20846;-58
2021/01/27 05:32:09;;;;;;;1.10;0.50;;;1.50;99.90;;;;;;5073625;28;20917;-58
2021/01/27 05:34:38;;;;;;;1.13;0.63;;;1.40;99.90;;;;;;5074106;28;20431;-58
2021/01/27 05:37:08;;;;;;;2.00;0.60;;;1.40;99.90;;;;;;5074977;28;20427;-59
2021/01/27 05:39:35;;;;;;;1.27;0.60;;;1.40;99.90;;;;;;5074918;28;20430;-58
2021/01/27 05:42:19;;;;;;;1.03;0.60;;;1.40;99.90;;;;;;5074635;28;20415;-59
2021/01/27 05:44:45;;;;;;;0.80;0.60;;;1.50;99.90;;;;;;5074179;28;20424;-58
2021/01/27 05:47:35;;;;;;;1.30;0.50;;;1.50;99.90;;;;;;5074477;28;20497;-60
2021/01/27 05:50:22;;;;;;;0.90;0.52;;;1.60;99.90;;;;;;5073778;28;20423;-59
2021/01/27 05:52:49;;;;;;;2.38;0.60;;;1.60;99.90;;;;;;5073654;28;20432;-59
2021/01/27 05:55:17;;;;;;;0.95;0.60;;;1.60;99.90;;;;;;5073592;28;20459;-59
2021/01/27 05:57:58;;;;;;;0.98;0.60;;;1.50;99.90;;;;;;5073525;28;20527;-59
2021/01/27 06:00:27;;;;;;;1.70;0.50;;;1.50;99.90;;;;;;5061314;28;20476;-59
2021/01/27 06:02:57;;;;;;;1.05;0.63;;;1.50;99.90;;;;;;5061813;28;20425;-58
2021/01/27 06:05:35;;;;;;;1.02;0.52;;;1.50;99.90;;;;;;5059397;28;20437;-58
2021/01/27 06:08:11;;;;;;;1.07;0.60;;;1.80;99.90;;;;;;5061528;28;20425;-60
2021/01/27 06:10:38;;;;;;;0.90;0.60;;;1.80;99.90;;;;;;5053910;28;20464;-58
2021/01/27 06:13:25;;;;;;;1.05;0.60;;;1.90;99.90;;;;;;5071149;28;20430;-58
2021/01/27 06:15:53;;;;;;;1.40;0.53;;;1.70;99.90;;;;;;5072206;28;20478;-58
2021/01/27 06:18:22;;;;;;;1.05;0.60;;;1.70;99.90;;;;;;5062165;28;20457;-58
2021/01/27 06:20:52;;;;;;;0.80;0.50;;;1.60;99.90;;;;;;5059919;28;20455;-58
2021/01/27 06:23:57;;;;;;;1.20;0.50;;;1.60;99.90;;;;;;5064102;28;20540;-58
2021/01/27 06:26:37;;;;;;;1.10;0.60;;;1.90;99.90;;;;;;4962090;28;20636;-59
2021/01/27 06:29:19;;;;;;;1.00;0.60;;;1.80;99.90;;;;;;4967827;28;20463;-56
2021/01/27 06:32:21;;;;;;;1.80;0.60;;;1.80;99.90;;;;;;5028964;28;20504;-57
2021/01/27 06:35:11;;;;;;;0.80;0.50;;;1.70;99.90;;;;;;5067270;28;20570;-57
2021/01/27 06:38:07;;;;;;;1.10;0.60;;;1.80;99.90;;;;;;5051434;28;20464;-56
2021/01/27 06:40:58;;;;;;;2.38;0.60;;;1.80;99.90;;;;;;5063234;28;20653;-57
2021/01/27 06:43:54;;;;;;;1.50;0.50;;;1.80;99.90;;;;;;5054983;28;20445;-54
2021/01/27 06:46:45;;;;;;;1.25;0.50;;;1.80;99.90;;;;;;5047621;28;20534;-55
2021/01/27 06:49:41;;;;;;;1.67;0.60;;;1.80;99.90;;;;;;5061185;28;20837;-54
2021/01/27 06:52:43;;;;;;;1.00;0.50;;;1.70;99.90;;;;;;5069391;28;20720;-55
2021/01/27 06:55:22;;;;;;;0.90;0.50;;;1.60;99.90;;;;;;5058400;28;20467;-58
2021/01/27 06:58:21;;;;;;;0.90;0.60;;;1.60;99.90;;;;;;5072209;28;20447;-55
2021/01/27 07:01:09;;;;;;;2.55;0.80;;;1.50;99.90;;;;;;5052315;28;20712;-57
2021/01/27 07:04:08;;;;;;;1.70;0.60;;;1.50;99.90;;;;;;5053845;28;20426;-57
2021/01/27 07:07:10;;;;;;;0.90;0.60;;;1.50;99.90;;;;;;5054671;28;20515;-57
2021/01/27 07:10:07;;;;;;;1.00;0.60;;;1.50;99.90;;;;;;5050939;28;20457;-57
2021/01/27 07:12:40;;;;;;;1.40;0.60;;;1.50;99.90;;;;;;5039209;28;20429;-52
2021/01/27 07:15:30;;;;;;;2.10;0.60;;;1.60;99.90;;;;;;5052893;28;20432;-53
2021/01/27 07:18:32;;;;;;;1.10;0.50;;;1.60;99.90;;;;;;5061467;28;20455;-54
2021/01/27 07:21:03;;;;;;;2.50;0.70;;;1.60;99.90;;;;;;5056310;28;20470;-57
2021/01/27 07:23:41;;;;;;;1.17;0.70;;;1.60;99.90;;;;;;5074110;28;20425;-55
2021/01/27 07:26:13;;;;;;;1.52;0.60;;;1.60;99.90;;;;;;5066172;28;20463;-55
2021/01/27 07:28:50;;;;;;;1.70;0.60;;;1.70;99.90;;;;;;5059034;28;20875;-55
2021/01/27 07:31:22;;;;;;;1.00;0.60;;;1.70;99.90;;;;;;5057648;28;20437;-56
2021/01/27 07:33:54;;;;;;;1.10;0.60;;;1.80;99.90;;;;;;5068622;28;20459;-55
2021/01/27 07:36:33;;;;;;;0.90;0.50;;;1.80;99.90;;;;;;5069057;28;20726;-57
2021/01/27 07:39:04;;;;;;;0.95;0.50;;;2.20;99.90;;;;;;5067047;28;20500;-58
2021/01/27 07:41:46;;;;;;;1.20;0.50;;;2.30;99.90;;;;;;5062248;28;20455;-57
2021/01/27 07:44:17;;;;;;;0.70;0.50;;;2.30;99.90;;;;;;5060520;28;20553;-54
2021/01/27 07:46:50;;;;;;;1.00;0.50;;;2.20;99.90;;;;;;5062383;28;20449;-58
2021/01/27 07:49:25;;;;;;;0.90;0.50;;;2.00;99.90;;;;;;5056451;28;20917;-55
2021/01/27 07:51:57;;;;;;;0.80;0.50;;;2.00;99.90;;;;;;5070246;28;20433;-54
2021/01/27 07:54:28;;;;;;;1.10;0.50;;;2.00;99.90;;;;;;5060548;28;20622;-56
2021/01/27 07:57:03;;;;;;;1.00;0.50;;;2.20;99.90;;;;;;5085394;28;20429;-59
2021/01/27 07:59:36;;;;;;;1.10;0.50;;;2.20;99.90;;;;;;5080994;28;20753;-60
2021/01/27 08:02:09;;;;;;;1.00;0.50;;;2.00;99.90;;;;;;5072623;28;20859;-61
2021/01/27 08:04:42;;;;;;;1.00;0.50;;;2.00;99.90;;;;;;5061606;28;20431;-60
2021/01/27 08:07:18;;;;;;;2.10;0.60;;;1.80;99.90;;;;;;5066863;28;20457;-59
2021/01/27 08:09:45;;;;;;;1.25;0.50;;;1.80;99.90;;;;;;5054513;28;20433;-60
2021/01/27 08:12:16;;;;;;;1.08;0.60;;;1.80;99.90;;;;;;5062039;28;20549;-59
2021/01/27 08:15:02;;;;;;;0.80;0.50;;;2.10;99.90;;;;;;5055966;28;20468;-59
2021/01/27 08:18:04;;;;;;;1.80;0.50;;;2.00;99.90;;;;;;5072597;28;20511;-61
2021/01/27 08:20:32;;;;;;;4.90;0.80;;;2.20;99.90;;;;;;5000201;28;20436;-61
2021/01/27 08:23:01;;;;;;;1.00;0.50;;;2.50;99.90;;;;;;5004882;28;20427;-62
2021/01/27 08:25:54;;;;;;;1.30;0.60;;;2.90;99.90;;;;;;5021760;28;20546;-61
2021/01/27 08:28:24;;;;;;;0.85;0.50;;;2.70;99.90;;;;;;5060940;28;20780;-61
2021/01/27 08:31:24;;;;;;;2.30;0.50;;;2.50;99.90;;;;;;5061705;28;20665;-61
2021/01/27 08:33:58;;;;;;;0.90;0.50;;;2.20;99.90;;;;;;5068536;28;20516;-61
2021/01/27 08:37:03;;;;;;;0.80;0.50;;;1.90;99.90;;;;;;5067846;28;20457;-61
2021/01/27 08:39:31;;;;;;;1.00;0.60;;;1.80;99.90;;;;;;5058358;28;20878;-61
2021/01/27 08:42:00;;;;;;;1.40;0.50;;;1.70;99.90;;;;;;5061818;28;20478;-61
2021/01/27 08:44:33;;;;;;;0.80;0.60;;;1.90;99.90;;;;;;5061774;28;20440;-61
2021/01/27 08:47:03;;;;;;;1.20;0.60;;;1.80;99.90;;;;;;5055422;28;20740;-61
2021/01/27 08:49:47;;;;;;;0.90;0.60;;;1.70;99.90;;;;;;5057786;28;20471;-61
2021/01/27 08:53:04;;;;;;;1.05;0.60;;;1.60;99.90;;;;;;5057132;28;20808;-60
2021/01/27 08:55:54;;;;;;;2.00;0.70;;;1.70;99.90;;;;;;5046930;28;20433;-60
2021/01/27 08:58:38;;;;;;;1.00;0.50;;;2.10;99.90;;;;;;5056906;28;21141;-61
2021/01/27 09:01:34;;;;;;;0.90;0.50;;;2.00;99.90;;;;;;5071355;28;20526;-62
2021/01/27 09:04:04;;;;;;;0.82;0.60;;;1.80;99.90;;;;;;5054472;28;20685;-61
2021/01/27 09:06:44;;;;;;;1.00;0.60;;;1.60;99.90;;;;;;5064450;28;20519;-60
2021/01/27 09:09:27;;;;;;;1.20;0.60;;;1.50;99.90;;;;;;5062411;28;20475;-60
2021/01/27 09:11:58;;;;;;;1.03;0.60;;;1.80;99.90;;;;;;5076429;28;20483;-60
2021/01/27 09:14:26;;;;;;;0.90;0.50;;;1.70;99.90;;;;;;5070813;28;20527;-61
2021/01/27 09:16:53;;;;;;;0.80;0.40;;;1.90;99.90;;;;;;5057574;28;20457;-60
2021/01/27 09:19:23;;;;;;;0.90;0.50;;;1.80;99.90;;;;;;5057227;28;20846;-61
2021/01/27 09:22:13;;;;;;;2.60;0.50;;;2.10;99.90;;;;;;5074610;28;20483;-61
2021/01/27 09:24:44;;;;;;;1.00;0.50;;;1.90;99.90;;;;;;5066207;28;20467;-61
2021/01/27 09:27:22;;;;;;;1.38;0.50;;;2.10;99.90;;;;;;5061413;28;20449;-61
2021/01/27 09:29:57;;;;;;;0.70;0.40;;;1.90;99.90;;;;;;5068498;28;20606;-61
2021/01/27 09:32:23;;;;;;;0.90;0.57;;;1.80;99.90;;;;;;5074591;28;20943;-61
2021/01/27 09:34:51;;;;;;;0.85;0.50;;;1.70;99.90;;;;;;5055539;28;20676;-60
2021/01/27 09:37:29;;;;;;;1.10;0.70;;;1.60;99.90;;;;;;5061113;28;20574;-60
2021/01/27 09:40:07;;;;;;;1.23;0.70;;;1.30;99.90;;;;;;5047765;28;20872;-60
2021/01/27 09:42:34;;;;;;;1.60;0.73;;;1.10;99.90;;;;;;5052807;28;20453;-60
2021/01/27 09:45:03;;;;;;;1.90;0.70;;;1.00;99.90;;;;;;5069832;28;20431;-60
2021/01/27 09:47:32;;;;;;;1.17;0.70;;;1.00;99.90;;;;;;5065119;28;20432;-60
2021/01/27 09:50:05;;;;;;;2.50;0.60;;;1.00;99.90;;;;;;5050502;28;20429;-60
2021/01/27 09:52:33;;;;;;;2.28;0.70;;;1.00;99.90;;;;;;5062880;28;20544;-59
2021/01/27 09:55:08;;;;;;;1.10;0.68;;;1.00;99.90;;;;;;5053956;28;20440;-59
2021/01/27 09:57:36;;;;;;;1.15;0.60;;;1.00;99.90;;;;;;5066390;28;20682;-59
2021/01/27 10:00:07;;;;;;;1.42;0.70;;;0.90;99.90;;;;;;5064466;28;20561;-59
2021/01/27 10:02:35;;;;;;;1.80;0.70;;;1.00;99.90;;;;;;5070005;28;20444;-59
2021/01/27 10:05:34;;;;;;;1.10;0.60;;;0.90;99.90;;;;;;5064060;28;20433;-60
2021/01/27 10:08:01;;;;;;;2.60;0.68;;;0.90;99.90;;;;;;5055299;28;20570;-60
2021/01/27 10:10:28;;;;;;;1.00;0.50;;;0.80;99.90;;;;;;5060175;28;20472;-62
2021/01/27 10:12:56;;;;;;;1.00;0.57;;;0.80;99.90;;;;;;5050300;28;20476;-60
2021/01/27 10:15:30;;;;;;;0.88;0.60;;;0.80;99.90;;;;;;5062899;28;20793;-62
2021/01/27 10:18:05;;;;;;;0.80;0.60;;;0.80;99.90;;;;;;5056706;28;20429;-59
2021/01/27 10:20:35;;;;;;;1.00;0.60;;;0.70;99.90;;;;;;5067776;28;20550;-59
2021/01/27 10:23:04;;;;;;;1.10;0.60;;;0.80;99.90;;;;;;5053609;28;20482;-58
2021/01/27 10:25:34;;;;;;;1.98;0.60;;;0.80;99.90;;;;;;5050736;28;20491;-60
2021/01/27 10:28:15;;;;;;;1.45;0.60;;;0.80;99.90;;;;;;5053472;28;20848;-60
2021/01/27 10:30:46;;;;;;;1.50;0.50;;;0.90;99.90;;;;;;5066295;28;20522;-61
2021/01/27 10:33:47;;;;;;;0.73;0.40;;;0.90;99.90;;;;;;5064020;28;20471;-59
2021/01/27 10:36:32;;;;;;;0.85;0.50;;;0.90;99.90;;;;;;5056950;28;20518;-58
2021/01/27 10:39:20;;;;;;;0.90;0.45;;;1.10;99.90;;;;;;5060800;28;20449;-58
2021/01/27 10:41:48;;;;;;;0.70;0.50;;;1.10;99.90;;;;;;5055431;28;20452;-58
2021/01/27 10:44:23;;;;;;;1.20;0.50;;;1.10;99.90;;;;;;5052403;28;20547;-57
2021/01/27 10:46:52;;;;;;;0.90;0.40;;;1.20;99.90;;;;;;5048944;28;20436;-57
2021/01/27 10:49:19;;;;;;;1.00;0.50;;;1.20;99.90;;;;;;5046928;28;20487;-58
2021/01/27 10:51:46;;;;;;;0.90;0.50;;;1.20;99.90;;;;;;5047275;28;20444;-57
2021/01/27 10:54:16;;;;;;;0.75;0.50;;;1.20;99.90;;;;;;5047788;28;20706;-58
2021/01/27 10:56:42;;;;;;;1.00;0.50;;;1.30;99.90;;;;;;5050817;28;20443;-58
2021/01/27 10:59:08;;;;;;;0.90;0.50;;;1.40;99.90;;;;;;5050907;28;20472;-58
2021/01/27 11:01:35;;;;;;;0.90;0.50;;;1.30;99.90;;;;;;5077404;28;20484;-56
2021/01/27 11:04:01;;;;;;;1.00;0.50;;;1.40;99.90;;;;;;5052828;28;20908;-59
2021/01/27 11:06:28;;;;;;;0.80;0.50;;;1.40;99.90;;;;;;5058981;28;20429;-58
2021/01/27 11:08:55;;;;;;;1.00;0.50;;;1.50;99.90;;;;;;5054441;28;20433;-58
2021/01/27 11:11:21;;;;;;;0.70;0.43;;;1.50;99.90;;;;;;5052344;28;20461;-57
2021/01/27 11:13:48;;;;;;;0.60;0.50;;;1.50;99.90;;;;;;5052412;28;20433;-58
2021/01/27 11:16:15;;;;;;;1.40;0.50;;;1.60;99.90;;;;;;5055543;28;20447;-58
2021/01/27 11:18:42;;;;;;;0.70;0.43;;;1.40;99.90;;;;;;5072174;28;21094;-59
2021/01/27 11:21:09;;;;;;;1.50;0.50;;;1.30;99.90;;;;;;5067880;28;20662;-58
2021/01/27 11:23:36;;;;;;;1.00;0.50;;;1.10;99.90;;;;;;5066163;28;20435;-58
2021/01/27 11:26:03;;;;;;;1.17;0.50;;;1.10;99.90;;;;;;5073369;28;20457;-59
2021/01/27 11:28:30;;;;;;;1.20;0.60;;;1.20;99.90;;;;;;5058916;28;20441;-60
2021/01/27 11:30:57;;;;;;;0.90;0.50;;;1.30;99.90;;;;;;5067922;28;20469;-59
2021/01/27 11:33:24;;;;;;;1.00;0.50;;;1.40;99.90;;;;;;5071984;28;20766;-59
2021/01/27 11:35:51;;;;;;;0.80;0.47;;;1.50;99.90;;;;;;5070704;28;20431;-59
2021/01/27 11:38:18;;;;;;;0.80;0.50;;;1.60;99.90;;;;;;5071929;28;20458;-59
2021/01/27 11:40:44;;;;;;;1.50;0.50;;;1.70;99.90;;;;;;5069230;28;20443;-59
2021/01/27 11:43:12;;;;;;;0.80;0.40;;;1.60;99.90;;;;;;5064313;28;20459;-59
2021/01/27 11:45:38;;;;;;;1.20;0.40;;;1.60;99.90;;;;;;5073742;28;20519;-59
2021/01/27 11:48:06;;;;;;;0.80;0.40;;;1.60;99.90;;;;;;5059105;28;20457;-56
2021/01/27 11:50:32;;;;;;;1.30;0.40;;;1.50;99.90;;;;;;5054086;28;20437;-59
2021/01/27 11:52:58;;;;;;;0.50;0.30;;;1.60;99.90;;;;;;5061725;28;20440;-58
2021/01/27 11:55:25;;;;;;;2.00;0.40;;;1.50;99.90;;;;;;5058975;28;20882;-59
2021/01/27 11:57:51;;;;;;;0.80;0.40;;;1.50;99.90;;;;;;5071210;28;20458;-58
2021/01/27 12:00:21;;;;;;;0.90;0.40;;;1.50;99.90;;;;;;5070438;28;20724;-58
2021/01/27 12:02:48;;;;;;;0.88;0.40;;;1.60;99.90;;;;;;5071954;28;20463;-59
2021/01/27 12:05:16;;;;;;;0.77;0.40;;;1.60;99.90;;;;;;5068359;28;20799;-58
2021/01/27 12:07:43;;;;;;;0.93;0.40;;;1.60;99.90;;;;;;5061994;28;20424;-59
2021/01/27 12:10:10;;;;;;;0.80;0.30;;;1.60;99.90;;;;;;5069772;28;20470;-60
2021/01/27 12:12:37;;;;;;;0.57;0.38;;;1.60;99.90;;;;;;5066460;28;20864;-60
2021/01/27 12:15:04;;;;;;;0.80;0.40;;;1.70;99.90;;;;;;5058374;28;20534;-61
2021/01/27 12:17:32;;;;;;;0.82;0.30;;;1.90;99.90;;;;;;5054665;28;20940;-60
2021/01/27 12:19:58;;;;;;;0.80;0.40;;;1.90;99.90;;;;;;5054136;28;20502;-60
2021/01/27 12:22:24;;;;;;;3.08;0.40;;;1.90;99.90;;;;;;5050633;28;20880;-61
2021/01/27 12:24:51;;;;;;;0.70;0.40;;;1.90;99.90;;;;;;5060774;28;20438;-61
2021/01/27 12:27:17;;;;;;;0.80;0.40;;;1.80;99.90;;;;;;5050189;28;20429;-61
2021/01/27 12:29:44;;;;;;;1.70;0.40;;;1.70;99.90;;;;;;5055472;28;20572;-60
2021/01/27 12:32:10;;;;;;;1.33;0.40;;;1.80;99.90;;;;;;5058255;28;20517;-60
2021/01/27 12:34:37;;;;;;;0.70;0.40;;;1.90;99.90;;;;;;5070149;28;20801;-60
2021/01/27 12:37:04;;;;;;;0.70;0.40;;;1.80;99.90;;;;;;5056268;28;20465;-60
2021/01/27 12:39:30;;;;;;;0.60;0.30;;;1.80;99.90;;;;;;5050660;28;20843;-60
2021/01/27 12:41:57;;;;;;;0.70;0.40;;;1.80;99.90;;;;;;5058980;28;20799;-61
2021/01/27 12:44:27;;;;;;;0.80;0.40;;;2.00;99.90;;;;;;5066979;28;20465;-60
2021/01/27 12:47:13;;;;;;;0.57;0.30;;;2.00;99.90;;;;;;5063700;28;20436;-59
2021/01/27 12:49:41;;;;;;;0.80;0.40;;;1.90;99.90;;;;;;5068183;28;20439;-59
2021/01/27 12:52:09;;;;;;;1.58;0.30;;;1.90;99.90;;;;;;5055792;28;20864;-58
2021/01/27 12:54:35;;;;;;;0.63;0.30;;;2.00;99.90;;;;;;5063664;28;20470;-59
2021/01/27 12:57:02;;;;;;;0.68;0.38;;;2.00;99.90;;;;;;5063690;28;20434;-59
2021/01/27 12:59:28;;;;;;;0.60;0.40;;;2.10;99.90;;;;;;5071747;28;20467;-59
2021/01/27 13:01:55;;;;;;;0.60;0.30;;;1.90;99.90;;;;;;5070021;28;20451;-59
2021/01/27 13:04:22;;;;;;;0.50;0.30;;;1.90;99.90;;;;;;5062909;28;20474;-59
2021/01/27 13:06:50;;;;;;;0.70;0.40;;;1.90;99.90;;;;;;5067649;28;20461;-59
2021/01/27 13:09:16;;;;;;;0.70;0.40;;;2.00;99.90;;;;;;5063115;28;20445;-59
2021/01/27 13:11:43;;;;;;;0.70;0.30;;;2.10;99.90;;;;;;5054265;28;20525;-60
2021/01/27 13:14:10;;;;;;;1.30;0.40;;;2.10;99.90;;;;;;5054667;28;20464;-60
2021/01/27 13:16:37;;;;;;;1.10;0.40;;;2.00;99.90;;;;;;5064988;28;20599;-60
2021/01/27 13:19:04;;;;;;;0.80;0.40;;;1.90;99.90;;;;;;5063384;28;20761;-60
2021/01/27 13:21:30;;;;;;;0.90;0.40;;;1.90;99.90;;;;;;5051073;28;20621;-59
2021/01/27 13:23:57;;;;;;;0.95;0.45;;;1.90;99.90;;;;;;5056789;28;20440;-60
2021/01/27 13:26:24;;;;;;;2.20;0.45;;;1.90;99.90;;;;;;5072647;28;20515;-60
2021/01/27 13:28:50;;;;;;;1.20;0.45;;;1.90;99.90;;;;;;5060317;28;20475;-59